createdAt,value
2018-08-09T00:02:11.777Z,14.90
2018-08-09T00:07:08.996Z,19.98
2018-08-09T00:12:05.907Z,14.18
2018-08-09T00:17:02.816Z,16.70
2018-08-09T00:21:59.594Z,19.48
2018-08-09T00:26:56.552Z,16.60
2018-08-09T00:31:53.510Z,16.93
2018-08-09T00:36:50.282Z,16.65
2018-08-09T00:41:47.218Z,20.10
2018-08-09T00:46:43.953Z,16.70
2018-08-09T00:51:40.945Z,13.90
2018-08-09T00:56:37.687Z,21.33
2018-08-09T01:01:34.690Z,15.35
2018-08-09T01:06:31.397Z,16.10
2018-08-09T01:11:28.567Z,17.75
2018-08-09T01:16:26.425Z,17.60
2018-08-09T01:21:23.439Z,16.90
2018-08-09T01:26:20.240Z,19.92
2018-08-09T01:31:21.865Z,17.57
2018-08-09T01:36:18.593Z,13.93
2018-08-09T01:41:15.478Z,17.25
2018-08-09T01:46:12.282Z,14.95
2018-08-09T01:51:09.304Z,20.10
2018-08-09T01:56:06.059Z,22.32
2018-08-09T02:01:03.003Z,18.40
2018-08-09T02:05:59.737Z,15.55
2018-08-09T02:10:56.651Z,17.55
2018-08-09T02:15:53.862Z,17.30
2018-08-09T02:20:50.982Z,16.20
2018-08-09T02:25:47.701Z,15.57
2018-08-09T02:30:44.586Z,17.70
2018-08-09T02:35:41.323Z,18.45
2018-08-09T02:40:38.675Z,18.63
2018-08-09T02:45:35.677Z,18.57
2018-08-09T02:50:32.629Z,25.80
2018-08-09T02:55:29.561Z,17.63
2018-08-09T03:00:26.471Z,17.98
2018-08-09T03:05:23.136Z,21.90
2018-08-09T03:10:19.993Z,14.07
2018-08-09T03:15:16.742Z,22.33
2018-08-09T03:20:13.919Z,18.07
2018-08-09T03:25:10.589Z,18.00
2018-08-09T03:30:07.655Z,16.70
2018-08-09T03:35:05.080Z,21.30
2018-08-09T03:40:01.972Z,23.80
2018-08-09T03:44:58.927Z,16.63
2018-08-09T03:49:55.741Z,19.67
2018-08-09T03:54:52.952Z,20.00
2018-08-09T03:59:49.644Z,17.60
2018-08-09T04:04:46.592Z,19.33
2018-08-09T04:09:43.305Z,17.62
2018-08-09T04:14:40.699Z,17.50
2018-08-09T04:19:37.707Z,17.33
2018-08-09T04:24:34.412Z,21.37
2018-08-09T04:29:31.149Z,19.37
2018-08-09T04:34:29.160Z,17.90
2018-08-09T04:39:25.918Z,15.93
2018-08-09T04:44:23.007Z,17.90
2018-08-09T04:49:20.128Z,16.17
2018-08-09T04:54:16.874Z,16.50
2018-08-09T04:59:13.962Z,17.37
2018-08-09T05:04:10.611Z,18.07
2018-08-09T05:09:09.308Z,14.37
2018-08-09T05:14:06.094Z,16.53
2018-08-09T05:19:03.044Z,18.73
2018-08-09T05:23:59.867Z,16.23
2018-08-09T05:28:56.856Z,15.98
2018-08-09T05:33:53.685Z,17.15
2018-08-09T05:38:51.519Z,15.38
2018-08-09T05:43:48.188Z,14.63
2018-08-09T05:48:45.108Z,14.03
2018-08-09T05:53:41.857Z,13.78
2018-08-09T05:58:39.131Z,12.33
2018-08-09T06:03:35.926Z,12.07
2018-08-09T06:08:33.060Z,12.78
2018-08-09T06:13:29.881Z,15.38
2018-08-09T06:18:26.899Z,11.38
2018-08-09T06:23:23.616Z,9.20
2018-08-09T06:28:20.817Z,7.97
2018-08-09T06:33:17.645Z,8.50
2018-08-09T06:38:14.728Z,10.28
2018-08-09T06:43:11.435Z,9.48
2018-08-09T06:48:08.191Z,9.03
2018-08-09T06:53:04.937Z,7.97
2018-08-09T06:58:01.977Z,6.58
2018-08-09T07:02:58.950Z,6.15
2018-08-09T07:07:55.887Z,6.03
2018-08-09T07:12:52.991Z,8.30
2018-08-09T07:17:49.957Z,6.20
2018-08-09T07:22:47.107Z,7.17
2018-08-09T07:27:43.850Z,6.80
2018-08-09T07:32:41.614Z,5.00
2018-08-09T07:37:38.437Z,6.05
2018-08-09T07:42:35.660Z,5.20
2018-08-09T07:47:32.408Z,5.12
2018-08-09T07:52:29.463Z,4.50
2018-08-09T07:57:26.140Z,5.00
2018-08-09T08:02:23.111Z,4.87
2018-08-09T08:07:20.130Z,4.97
2018-08-09T08:12:17.128Z,4.90
2018-08-09T08:17:13.867Z,6.33
2018-08-09T08:22:10.842Z,5.50
2018-08-09T08:27:07.538Z,6.60
2018-08-09T08:32:05.187Z,6.00
2018-08-09T08:37:02.459Z,6.25
2018-08-09T08:41:59.226Z,5.60
2018-08-09T08:46:56.169Z,7.08
2018-08-09T08:51:52.861Z,6.33
2018-08-09T08:56:50.193Z,6.53
2018-08-09T09:01:46.964Z,4.90
2018-08-09T09:06:44.025Z,4.50
2018-08-09T09:11:42.451Z,5.87
2018-08-09T09:16:39.484Z,6.75
2018-08-09T09:21:36.541Z,8.05
2018-08-09T09:26:33.235Z,4.28
2018-08-09T09:31:30.261Z,6.12
2018-08-09T09:36:27.030Z,5.50
2018-08-09T09:41:24.413Z,4.50
2018-08-09T09:46:21.230Z,5.47
2018-08-09T09:51:18.188Z,4.97
2018-08-09T09:56:14.850Z,4.75
2018-08-09T10:01:17.525Z,3.95
2018-08-09T10:06:14.250Z,5.08
2018-08-09T10:11:11.271Z,4.47
2018-08-09T10:16:09.168Z,5.25
2018-08-09T10:21:06.670Z,3.22
2018-08-09T10:26:03.369Z,5.90
2018-08-09T10:31:00.474Z,4.12
2018-08-09T10:35:57.238Z,3.92
2018-08-09T10:40:54.689Z,3.02
2018-08-09T10:45:52.581Z,3.52
2018-08-09T10:50:49.923Z,4.60
2018-08-09T10:55:46.644Z,6.75
2018-08-09T11:00:43.575Z,4.30
2018-08-09T11:05:40.306Z,3.47
2018-08-09T11:10:37.290Z,3.27
2018-08-09T11:15:34.031Z,5.70
2018-08-09T11:20:31.618Z,3.60
2018-08-09T11:25:28.781Z,3.10
2018-08-09T11:30:25.497Z,6.70
2018-08-09T11:35:22.411Z,5.10
2018-08-09T11:40:19.169Z,4.10
2018-08-09T11:45:16.111Z,2.35
2018-08-09T11:50:12.856Z,2.77
2018-08-09T11:55:09.828Z,4.75
2018-08-09T12:00:07.065Z,3.50
2018-08-09T12:05:04.073Z,3.20
2018-08-09T12:10:01.037Z,3.42
2018-08-09T12:14:57.817Z,3.20
2018-08-09T12:19:55.138Z,6.12
2018-08-09T12:24:51.846Z,3.45
2018-08-09T12:29:48.792Z,5.00
2018-08-09T12:34:45.569Z,3.15
2018-08-09T12:39:42.611Z,2.87
2018-08-09T12:44:39.679Z,5.67
2018-08-09T12:49:36.474Z,5.75
2018-08-09T12:54:33.707Z,3.25
2018-08-09T12:59:30.473Z,5.42
2018-08-09T13:04:27.399Z,3.40
2018-08-09T13:09:24.379Z,3.75
2018-08-09T13:14:21.323Z,4.10
2018-08-09T13:19:18.055Z,3.08
2018-08-09T13:24:15.847Z,4.53
2018-08-09T13:29:12.543Z,4.22
2018-08-09T13:34:10.207Z,3.35
2018-08-09T13:39:07.924Z,2.87
2018-08-09T13:44:05.035Z,3.00
2018-08-09T13:49:02.128Z,2.80
2018-08-09T13:53:59.589Z,2.85
2018-08-09T13:58:56.266Z,5.42
2018-08-09T14:03:53.168Z,3.92
2018-08-09T14:08:49.937Z,3.08
2018-08-09T14:13:46.715Z,4.45
2018-08-09T14:18:43.681Z,3.50
2018-08-09T14:23:40.799Z,4.37
2018-08-09T14:28:37.916Z,6.75
2018-08-09T14:33:34.756Z,3.72
2018-08-09T14:38:31.845Z,4.90
2018-08-09T14:43:28.630Z,2.87
2018-08-09T14:48:25.979Z,5.80
2018-08-09T14:53:22.768Z,4.95
2018-08-09T14:58:19.693Z,6.58
2018-08-09T15:03:16.609Z,6.00
2018-08-09T15:08:13.373Z,5.75
2018-08-09T15:13:10.100Z,10.28
2018-08-09T15:18:07.858Z,4.70
2018-08-09T15:23:04.577Z,6.47
2018-08-09T15:28:01.670Z,5.65
2018-08-09T15:32:58.470Z,5.90
2018-08-09T15:37:55.644Z,9.58
2018-08-09T15:42:52.312Z,6.17
2018-08-09T15:47:49.443Z,12.60
2018-08-09T15:52:46.162Z,27.80
2018-08-09T15:57:43.069Z,34.38
2018-08-09T16:02:39.876Z,24.07
2018-08-09T16:07:36.496Z,12.82
2018-08-09T16:12:33.181Z,11.35
2018-08-09T16:17:30.165Z,15.43
2018-08-09T16:22:26.895Z,12.95
2018-08-09T16:27:24.176Z,14.65
2018-08-09T16:32:20.922Z,11.45
2018-08-09T16:37:18.219Z,10.23
2018-08-09T16:42:14.991Z,10.75
2018-08-09T16:47:11.924Z,8.88
2018-08-09T16:52:08.707Z,10.58
2018-08-09T16:57:05.959Z,8.23
2018-08-09T17:02:03.129Z,9.63
2018-08-09T17:07:00.912Z,10.10
2018-08-09T17:11:57.887Z,7.95
2018-08-09T17:16:54.941Z,4.10
2018-08-09T17:21:51.655Z,7.83
2018-08-09T17:26:48.526Z,8.55
2018-08-09T17:31:45.256Z,8.63
2018-08-09T17:36:42.304Z,5.58
2018-08-09T17:41:39.111Z,7.17
2018-08-09T17:46:36.096Z,7.70
2018-08-09T17:51:33.358Z,8.68
2018-08-09T17:56:30.119Z,11.55
2018-08-09T18:01:27.087Z,5.55
2018-08-09T18:06:23.620Z,5.05
2018-08-09T18:11:20.363Z,5.12
2018-08-09T18:16:17.544Z,11.03
2018-08-09T18:21:14.260Z,8.45
2018-08-09T18:26:11.274Z,8.10
2018-08-09T18:31:08.484Z,8.33
2018-08-09T18:36:05.276Z,6.15
2018-08-09T18:41:02.274Z,4.95
2018-08-09T18:45:59.345Z,5.50
2018-08-09T18:50:56.292Z,7.95
2018-08-09T18:55:53.017Z,6.72
2018-08-09T19:00:50.311Z,6.30
2018-08-09T19:05:47.036Z,4.70
2018-08-09T19:10:44.049Z,7.62
2018-08-09T19:15:40.805Z,7.58
2018-08-09T19:20:37.974Z,5.30
2018-08-09T19:25:34.691Z,8.98
2018-08-09T19:30:31.778Z,5.62
2018-08-09T19:35:28.482Z,6.15
2018-08-09T19:40:27.232Z,7.15
2018-08-09T19:45:24.289Z,7.67
2018-08-09T19:50:22.603Z,9.03
2018-08-09T19:55:20.984Z,9.13
2018-08-09T20:00:18.971Z,8.88
2018-08-09T20:05:16.149Z,5.42
2018-08-09T20:10:13.055Z,5.92
2018-08-09T20:15:12.242Z,6.15
2018-08-09T20:20:09.773Z,8.20
2018-08-09T20:25:07.585Z,7.33
2018-08-09T20:30:06.127Z,8.70
2018-08-09T20:35:03.388Z,5.17
2018-08-09T20:40:00.507Z,5.80
2018-08-09T20:44:57.244Z,4.75
2018-08-09T20:49:54.144Z,8.68
2018-08-09T20:54:50.904Z,9.08
2018-08-09T20:59:47.953Z,5.72
2018-08-09T21:04:44.921Z,7.28
2018-08-09T21:09:42.425Z,8.03
2018-08-09T21:14:39.661Z,10.35
2018-08-09T21:19:36.396Z,9.18
2018-08-09T21:24:33.481Z,6.30
2018-08-09T21:29:30.231Z,8.93
2018-08-09T21:34:27.201Z,7.25
2018-08-09T21:39:23.947Z,6.75
2018-08-09T21:44:20.992Z,8.80
2018-08-09T21:49:17.713Z,5.47
2018-08-09T21:54:14.649Z,8.73
2018-08-09T21:59:11.385Z,6.12
2018-08-09T22:04:08.497Z,5.50
2018-08-09T22:09:13.319Z,8.20
2018-08-09T22:14:16.535Z,11.50
2018-08-09T22:19:18.955Z,5.37
2018-08-09T22:24:15.752Z,6.40
2018-08-09T22:29:12.723Z,8.50
2018-08-09T22:34:09.462Z,7.40
2018-08-09T22:39:07.469Z,6.28
2018-08-09T22:44:04.618Z,7.17
2018-08-09T22:49:01.594Z,11.75
2018-08-09T22:53:58.371Z,6.17
2018-08-09T22:58:55.424Z,7.55
2018-08-09T23:03:52.256Z,7.92
2018-08-09T23:08:49.224Z,7.80
2018-08-09T23:13:46.002Z,5.65
2018-08-09T23:18:43.667Z,5.10
2018-08-09T23:23:40.444Z,4.08
2018-08-09T23:28:37.387Z,5.85
2018-08-09T23:33:34.246Z,6.10
2018-08-09T23:38:30.996Z,7.28
2018-08-09T23:43:27.989Z,6.05
2018-08-09T23:48:24.716Z,6.83
2018-08-09T23:53:21.833Z,7.42
2018-08-09T23:58:18.865Z,6.22
